createdAt,value
2019-03-09T00:02:36.539Z,99651.77
2019-03-09T00:05:23.917Z,99644.45
2019-03-09T00:08:09.666Z,99638.80
2019-03-09T00:10:55.901Z,99641.00
2019-03-09T00:13:43.019Z,99640.17
2019-03-09T00:16:29.435Z,99621.88
2019-03-09T00:19:15.195Z,99621.39
2019-03-09T00:22:00.849Z,99612.44
2019-03-09T00:25:00.748Z,99599.62
2019-03-09T00:27:55.003Z,99594.40
2019-03-09T00:31:06.229Z,99589.67
2019-03-09T00:33:52.157Z,99577.14
2019-03-09T00:36:37.903Z,99576.73
2019-03-09T00:39:23.651Z,99581.44
2019-03-09T00:42:09.401Z,99560.94
2019-03-09T00:44:55.883Z,99552.22
2019-03-09T00:47:41.763Z,99546.87
2019-03-09T00:50:27.583Z,99546.38
2019-03-09T00:53:13.885Z,99543.22
2019-03-09T00:56:00.374Z,99537.81
2019-03-09T00:58:46.687Z,99535.08
2019-03-09T01:01:34.157Z,99526.64
2019-03-09T01:04:19.985Z,99523.59
2019-03-09T01:07:05.809Z,99522.61
2019-03-09T01:09:52.466Z,99527.38
2019-03-09T01:12:39.480Z,99511.50
2019-03-09T01:15:25.269Z,99497.41
2019-03-09T01:18:11.306Z,99498.56
2019-03-09T01:20:56.705Z,99498.87
2019-03-09T01:23:43.101Z,99487.88
2019-03-09T01:26:29.683Z,99490.89
2019-03-09T01:29:16.196Z,99479.91
2019-03-09T01:32:02.060Z,99468.35
2019-03-09T01:34:48.466Z,99466.30
2019-03-09T01:37:34.141Z,99450.50
2019-03-09T01:40:19.857Z,99446.26
2019-03-09T01:43:07.337Z,99429.97
2019-03-09T01:45:52.804Z,99437.64
2019-03-09T01:48:38.333Z,99435.98
2019-03-09T01:51:23.718Z,99433.45
2019-03-09T01:54:09.432Z,99427.58
2019-03-09T01:56:56.073Z,99428.06
2019-03-09T01:59:42.609Z,99425.03
2019-03-09T02:02:28.486Z,99420.38
2019-03-09T02:05:16.623Z,99422.52
2019-03-09T02:08:02.627Z,99414.70
2019-03-09T02:10:48.433Z,99410.41
2019-03-09T02:13:34.324Z,99399.80
2019-03-09T02:16:19.738Z,99391.64
2019-03-09T02:19:05.851Z,99388.67
2019-03-09T02:21:52.485Z,99382.25
2019-03-09T02:24:38.321Z,99369.36
2019-03-09T02:27:24.409Z,99367.70
2019-03-09T02:30:10.427Z,99366.80
2019-03-09T02:32:57.834Z,99346.41
2019-03-09T02:35:43.869Z,99349.34
2019-03-09T02:38:35.973Z,99340.02
2019-03-09T02:41:21.495Z,99335.77
2019-03-09T02:44:08.944Z,99333.04
2019-03-09T02:46:55.263Z,99328.44
2019-03-09T02:49:41.934Z,99321.67
2019-03-09T02:52:28.236Z,99325.89
2019-03-09T02:55:16.379Z,99321.19
2019-03-09T02:58:01.730Z,99315.05
2019-03-09T03:00:51.318Z,99310.92
2019-03-09T03:03:37.923Z,99310.09
2019-03-09T03:06:23.935Z,99310.50
2019-03-09T03:09:10.396Z,99311.09
2019-03-09T03:11:57.702Z,99312.20
2019-03-09T03:14:43.475Z,99295.97
2019-03-09T03:17:29.417Z,99294.20
2019-03-09T03:20:16.246Z,99294.25
2019-03-09T03:23:02.357Z,99292.87
2019-03-09T03:25:48.320Z,99292.48
2019-03-09T03:28:33.685Z,99288.63
2019-03-09T03:31:19.523Z,99282.55
2019-03-09T03:34:07.140Z,99295.76
2019-03-09T03:36:52.850Z,99297.86
2019-03-09T03:39:38.851Z,99297.52
2019-03-09T03:42:26.302Z,99285.31
2019-03-09T03:45:12.410Z,99294.31
2019-03-09T03:47:57.996Z,99290.89
2019-03-09T03:50:46.200Z,99292.05
2019-03-09T03:53:32.230Z,99277.52
2019-03-09T03:56:18.154Z,99289.07
2019-03-09T03:59:04.692Z,99274.00
2019-03-09T04:01:50.692Z,99279.81
2019-03-09T04:04:36.560Z,99268.02
2019-03-09T04:07:25.810Z,99265.73
2019-03-09T04:10:12.175Z,99277.97
2019-03-09T04:12:59.054Z,99266.19
2019-03-09T04:15:45.572Z,99272.69
2019-03-09T04:18:31.852Z,99274.08
2019-03-09T04:21:18.499Z,99277.32
2019-03-09T04:24:04.363Z,99275.64
2019-03-09T04:26:50.210Z,99287.19
2019-03-09T04:29:35.831Z,99284.12
2019-03-09T04:32:22.405Z,99307.26
2019-03-09T04:35:08.416Z,99291.90
2019-03-09T04:37:54.423Z,99294.59
2019-03-09T04:40:40.406Z,99302.04
2019-03-09T04:43:25.988Z,99310.95
2019-03-09T04:46:11.726Z,99322.98
2019-03-09T04:48:57.898Z,99322.48
2019-03-09T04:51:43.730Z,99325.08
2019-03-09T04:54:29.930Z,99320.70
2019-03-09T04:57:15.876Z,99327.91
2019-03-09T05:00:02.218Z,99323.73
2019-03-09T05:02:47.602Z,99323.95
2019-03-09T05:05:34.751Z,99326.09
2019-03-09T05:08:35.739Z,99329.03
2019-03-09T05:11:25.058Z,99330.27
2019-03-09T05:14:14.170Z,99330.38
2019-03-09T05:17:00.165Z,99357.45
2019-03-09T05:19:46.061Z,99353.92
2019-03-09T05:22:32.660Z,99363.33
2019-03-09T05:25:18.747Z,99380.83
2019-03-09T05:28:04.165Z,99392.07
2019-03-09T05:30:51.171Z,99404.21
2019-03-09T05:33:38.186Z,99410.62
2019-03-09T05:36:24.160Z,99411.36
2019-03-09T05:39:10.661Z,99413.94
2019-03-09T05:41:56.599Z,99419.09
2019-03-09T05:44:42.594Z,99418.67
2019-03-09T05:47:29.310Z,99428.31
2019-03-09T05:50:14.764Z,99432.56
2019-03-09T05:53:06.161Z,99424.12
2019-03-09T05:55:53.407Z,99430.44
2019-03-09T05:58:39.593Z,99427.89
2019-03-09T06:01:25.325Z,99432.70
2019-03-09T06:04:11.222Z,99424.12
2019-03-09T06:06:57.629Z,99441.36
2019-03-09T06:09:43.452Z,99446.02
2019-03-09T06:12:29.561Z,99439.86
2019-03-09T06:15:15.851Z,99446.87
2019-03-09T06:18:01.450Z,99445.48
2019-03-09T06:20:47.291Z,99452.12
2019-03-09T06:23:32.959Z,99475.22
2019-03-09T06:26:18.635Z,99484.16
2019-03-09T06:29:04.911Z,99486.12
2019-03-09T06:32:34.174Z,99480.97
2019-03-09T06:35:20.187Z,99475.53
2019-03-09T06:38:19.374Z,99470.86
2019-03-09T06:41:06.531Z,99469.08
2019-03-09T06:43:52.271Z,99476.36
2019-03-09T06:46:38.199Z,99489.45
2019-03-09T06:49:24.545Z,99497.48
2019-03-09T06:52:10.180Z,99502.77
2019-03-09T06:54:56.438Z,99514.63
2019-03-09T06:57:42.443Z,99510.97
2019-03-09T07:00:36.451Z,99512.78
2019-03-09T07:03:22.453Z,99529.62
2019-03-09T07:06:08.855Z,99535.05
2019-03-09T07:08:55.107Z,99523.83
2019-03-09T07:11:40.943Z,99521.08
2019-03-09T07:15:20.387Z,99517.48
2019-03-09T07:18:13.759Z,99509.27
2019-03-09T07:21:00.137Z,99532.06
2019-03-09T07:23:47.819Z,99540.38
2019-03-09T07:26:34.367Z,99550.18
2019-03-09T07:29:20.191Z,99549.95
2019-03-09T07:32:06.963Z,99551.43
2019-03-09T07:34:52.675Z,99550.41
2019-03-09T07:37:39.066Z,99560.42
2019-03-09T07:40:25.868Z,99557.08
2019-03-09T07:43:11.849Z,99554.66
2019-03-09T07:45:57.891Z,99551.46
2019-03-09T07:48:44.090Z,99557.41
2019-03-09T07:51:30.253Z,99578.85
2019-03-09T07:54:16.122Z,99575.23
2019-03-09T07:57:03.066Z,99584.00
2019-03-09T07:59:48.927Z,99566.09
2019-03-09T08:02:34.849Z,99571.70
2019-03-09T08:05:20.839Z,99577.95
2019-03-09T08:08:06.629Z,99590.98
2019-03-09T08:10:52.623Z,99595.72
2019-03-09T08:13:39.011Z,99591.25
2019-03-09T08:16:24.544Z,99587.69
2019-03-09T08:19:09.959Z,99588.04
2019-03-09T08:21:55.924Z,99598.66
2019-03-09T08:24:42.508Z,99604.30
2019-03-09T08:27:28.367Z,99603.00
2019-03-09T08:30:16.093Z,99600.81
2019-03-09T08:33:01.650Z,99600.91
2019-03-09T08:35:47.398Z,99581.69
2019-03-09T08:38:34.099Z,99582.06
2019-03-09T08:41:19.793Z,99597.52
2019-03-09T08:44:05.563Z,99591.16
2019-03-09T08:46:52.175Z,99564.07
2019-03-09T08:49:38.010Z,99576.48
2019-03-09T08:52:23.906Z,99568.19
2019-03-09T08:55:12.253Z,99574.64
2019-03-09T08:57:58.370Z,99580.35
2019-03-09T09:00:44.608Z,99575.63
2019-03-09T09:03:31.307Z,99570.69
2019-03-09T09:06:17.826Z,99571.77
2019-03-09T09:09:04.706Z,99585.70
2019-03-09T09:11:50.666Z,99587.53
2019-03-09T09:14:36.225Z,99596.22
2019-03-09T09:17:22.533Z,99594.33
2019-03-09T09:20:11.740Z,99592.89
2019-03-09T09:22:57.310Z,99591.50
2019-03-09T09:25:43.766Z,99593.31
2019-03-09T09:28:30.077Z,99576.59
2019-03-09T09:31:15.924Z,99579.95
2019-03-09T09:34:02.067Z,99586.23
2019-03-09T09:36:48.394Z,99558.83
2019-03-09T09:39:33.933Z,99569.40
2019-03-09T09:42:20.011Z,99551.91
2019-03-09T09:45:06.515Z,99544.41
2019-03-09T09:47:52.731Z,99549.66
2019-03-09T09:50:38.857Z,99530.64
2019-03-09T09:53:24.538Z,99510.16
2019-03-09T09:56:09.845Z,99510.77
2019-03-09T09:58:55.993Z,99528.65
2019-03-09T10:01:42.188Z,99546.23
2019-03-09T10:04:28.136Z,99538.91
2019-03-09T10:07:15.198Z,99555.42
2019-03-09T10:10:01.029Z,99549.65
2019-03-09T10:12:46.798Z,99553.67
2019-03-09T10:15:33.040Z,99546.48
2019-03-09T10:18:20.105Z,99556.23
2019-03-09T10:21:05.934Z,99556.63
2019-03-09T10:23:52.161Z,99562.77
2019-03-09T10:26:37.840Z,99562.55
2019-03-09T10:29:23.682Z,99556.43
2019-03-09T10:32:09.479Z,99559.05
2019-03-09T10:34:54.900Z,99566.72
2019-03-09T10:37:40.366Z,99566.56
2019-03-09T10:40:27.001Z,99523.72
2019-03-09T10:43:12.785Z,99526.53
2019-03-09T10:45:59.772Z,99538.88
2019-03-09T10:48:45.709Z,99530.29
2019-03-09T10:51:31.316Z,99541.09
2019-03-09T10:54:17.235Z,99531.81
2019-03-09T10:57:03.610Z,99526.50
2019-03-09T10:59:49.068Z,99525.50
2019-03-09T11:02:34.433Z,99511.81
2019-03-09T11:05:23.317Z,99507.24
2019-03-09T11:08:08.819Z,99500.16
2019-03-09T11:10:55.001Z,99490.11
2019-03-09T11:13:51.483Z,99504.98
2019-03-09T11:16:30.593Z,99498.21
2019-03-09T11:19:17.002Z,99502.44
2019-03-09T11:22:03.172Z,99491.30
2019-03-09T11:24:49.011Z,99499.31
2019-03-09T11:27:36.176Z,99513.89
2019-03-09T11:30:25.018Z,99495.91
2019-03-09T11:33:10.894Z,99492.99
2019-03-09T11:35:57.057Z,99477.15
2019-03-09T11:38:43.047Z,99487.03
2019-03-09T11:41:28.740Z,99484.44
2019-03-09T11:44:17.023Z,99481.04
2019-03-09T11:47:10.012Z,99482.11
2019-03-09T11:49:55.824Z,99485.91
2019-03-09T11:52:41.115Z,99472.50
2019-03-09T11:55:26.457Z,99466.55
2019-03-09T11:58:11.804Z,99474.02
2019-03-09T12:01:00.171Z,99473.05
2019-03-09T12:03:47.367Z,99494.70
2019-03-09T12:06:37.276Z,99490.55
2019-03-09T12:09:23.140Z,99493.56
2019-03-09T12:12:08.781Z,99489.42
2019-03-09T12:14:54.113Z,99471.84
2019-03-09T12:17:40.371Z,99472.70
2019-03-09T12:20:27.454Z,99479.58
2019-03-09T12:23:22.259Z,99471.55
2019-03-09T12:26:08.738Z,99450.72
2019-03-09T12:28:55.224Z,99465.66
2019-03-09T12:31:40.897Z,99474.81
2019-03-09T12:34:26.690Z,99449.20
2019-03-09T12:37:12.557Z,99447.91
2019-03-09T12:39:58.608Z,99445.18
2019-03-09T12:42:43.965Z,99424.25
2019-03-09T12:45:29.454Z,99429.21
2019-03-09T12:48:15.228Z,99401.72
2019-03-09T12:51:00.604Z,99393.39
2019-03-09T12:53:46.437Z,99397.55
2019-03-09T12:56:32.642Z,99381.03
2019-03-09T12:59:17.987Z,99372.76
2019-03-09T13:02:03.431Z,99378.17
2019-03-09T13:04:49.801Z,99379.12
2019-03-09T13:07:35.772Z,99370.44
2019-03-09T13:10:21.867Z,99362.70
2019-03-09T13:13:10.006Z,99348.47
2019-03-09T13:15:57.987Z,99347.72
2019-03-09T13:18:43.583Z,99324.23
2019-03-09T13:21:32.046Z,99326.06
2019-03-09T13:24:24.977Z,99319.54
2019-03-09T13:27:11.150Z,99299.23
2019-03-09T13:29:58.849Z,99282.09
2019-03-09T13:32:44.849Z,99289.00
2019-03-09T13:35:33.511Z,99278.36
2019-03-09T13:38:20.233Z,99269.72
2019-03-09T13:41:06.353Z,99244.22
2019-03-09T13:43:52.730Z,99227.25
2019-03-09T13:46:38.876Z,99211.76
2019-03-09T13:49:26.891Z,99178.09
2019-03-09T13:52:13.955Z,99177.04
2019-03-09T13:55:00.238Z,99163.84
2019-03-09T13:57:46.566Z,99154.07
2019-03-09T14:00:40.344Z,99150.02
2019-03-09T14:03:21.090Z,99168.67
2019-03-09T14:06:07.794Z,99169.48
2019-03-09T14:08:54.177Z,99184.53
2019-03-09T14:11:40.487Z,99165.41
2019-03-09T14:14:26.920Z,99212.03
2019-03-09T14:17:12.923Z,99247.37
2019-03-09T14:19:59.915Z,99263.72
2019-03-09T14:22:46.111Z,99252.80
2019-03-09T14:25:32.818Z,99228.50
2019-03-09T14:28:19.403Z,99191.44
2019-03-09T14:31:05.678Z,99200.36
2019-03-09T14:33:51.589Z,99199.68
2019-03-09T14:36:38.890Z,99195.67
2019-03-09T14:39:25.271Z,99190.55
2019-03-09T14:42:11.326Z,99175.83
2019-03-09T14:44:57.723Z,99175.25
2019-03-09T14:47:43.881Z,99164.19
2019-03-09T14:50:29.989Z,99147.52
2019-03-09T14:53:17.139Z,99148.89
2019-03-09T14:56:03.403Z,99151.45
2019-03-09T14:58:49.914Z,99144.03
2019-03-09T15:01:36.270Z,99142.05
2019-03-09T15:04:22.747Z,99133.62
2019-03-09T15:07:09.835Z,99139.45
2019-03-09T15:09:56.455Z,99132.48
2019-03-09T15:12:42.414Z,99135.33
2019-03-09T15:15:30.375Z,99130.70
2019-03-09T15:18:16.312Z,99116.97
2019-03-09T15:21:02.763Z,99124.66
2019-03-09T15:23:49.343Z,99148.69
2019-03-09T15:26:35.870Z,99152.82
2019-03-09T15:29:22.145Z,99149.02
2019-03-09T15:32:09.015Z,99140.60
2019-03-09T15:34:55.020Z,99132.84
2019-03-09T15:37:41.369Z,99132.02
2019-03-09T15:40:27.712Z,99140.45
2019-03-09T15:43:14.030Z,99152.89
2019-03-09T15:46:01.544Z,99166.62
2019-03-09T15:48:48.379Z,99200.63
2019-03-09T15:51:35.942Z,99229.46
2019-03-09T15:54:22.097Z,99273.55
2019-03-09T15:57:08.820Z,99318.07
2019-03-09T15:59:55.042Z,99319.23
2019-03-09T16:02:41.497Z,99312.31
2019-03-09T16:05:28.401Z,99295.99
2019-03-09T16:08:14.868Z,99287.46
2019-03-09T16:11:01.471Z,99295.11
2019-03-09T16:13:48.000Z,99297.94
2019-03-09T16:16:34.500Z,99299.45
2019-03-09T16:19:21.632Z,99337.08
2019-03-09T16:22:08.089Z,99317.98
2019-03-09T16:24:54.421Z,99328.42
2019-03-09T16:27:40.328Z,99341.95
2019-03-09T16:30:26.921Z,99341.89
2019-03-09T16:33:13.184Z,99348.27
2019-03-09T16:35:59.476Z,99359.09
2019-03-09T16:38:53.708Z,99356.46
2019-03-09T16:41:40.106Z,99366.69
2019-03-09T16:44:26.068Z,99377.68
2019-03-09T16:47:12.999Z,99377.80
2019-03-09T16:49:59.032Z,99374.38
2019-03-09T16:52:45.353Z,99375.97
2019-03-09T16:55:34.700Z,99389.27
2019-03-09T16:58:21.243Z,99396.80
2019-03-09T17:01:07.168Z,99422.11
2019-03-09T17:03:54.729Z,99428.81
2019-03-09T17:06:41.121Z,99435.30
2019-03-09T17:09:27.222Z,99447.64
2019-03-09T17:12:14.143Z,99473.47
2019-03-09T17:15:00.113Z,99472.42
2019-03-09T17:17:46.599Z,99470.70
2019-03-09T17:20:37.711Z,99503.65
2019-03-09T17:23:24.313Z,99498.54
2019-03-09T17:26:11.052Z,99527.20
2019-03-09T17:28:57.401Z,99541.67
2019-03-09T17:31:43.431Z,99542.51
2019-03-09T17:34:30.801Z,99556.70
2019-03-09T17:37:16.858Z,99576.67
2019-03-09T17:40:04.341Z,99582.70
2019-03-09T17:42:50.568Z,99579.33
2019-03-09T17:45:37.135Z,99612.67
2019-03-09T17:48:23.961Z,99624.30
2019-03-09T17:51:09.915Z,99631.98
2019-03-09T17:53:56.008Z,99663.34
2019-03-09T17:56:41.897Z,99674.11
2019-03-09T17:59:27.965Z,99681.00
2019-03-09T18:02:14.357Z,99700.69
2019-03-09T18:05:00.937Z,99722.95
2019-03-09T18:07:46.857Z,99729.06
2019-03-09T18:10:40.045Z,99728.20
2019-03-09T18:13:26.244Z,99745.38
2019-03-09T18:16:12.595Z,99745.84
2019-03-09T18:18:59.141Z,99761.33
2019-03-09T18:21:45.477Z,99770.39
2019-03-09T18:24:31.305Z,99787.16
2019-03-09T18:27:17.761Z,99788.41
2019-03-09T18:30:21.006Z,99788.88
2019-03-09T18:33:07.229Z,99803.50
2019-03-09T18:35:53.525Z,99803.16
2019-03-09T18:38:39.401Z,99824.16
2019-03-09T18:41:53.732Z,99822.05
2019-03-09T18:44:40.092Z,99847.34
2019-03-09T18:47:26.568Z,99849.50
2019-03-09T18:50:13.469Z,99844.83
2019-03-09T18:52:59.732Z,99855.06
2019-03-09T18:55:59.423Z,99857.75
2019-03-09T18:58:46.382Z,99858.17
2019-03-09T19:01:34.668Z,99879.58
2019-03-09T19:04:21.567Z,99877.00
2019-03-09T19:07:07.836Z,99869.75
2019-03-09T19:09:55.868Z,99874.47
2019-03-09T19:12:42.293Z,99888.19
2019-03-09T19:15:29.138Z,99889.51
2019-03-09T19:18:15.725Z,99890.36
2019-03-09T19:21:02.558Z,99898.51
2019-03-09T19:23:48.770Z,99900.63
2019-03-09T19:26:35.218Z,99908.36
2019-03-09T19:29:29.481Z,99904.94
2019-03-09T19:32:16.547Z,99909.65
2019-03-09T19:35:02.664Z,99921.23
2019-03-09T19:37:50.943Z,99920.36
2019-03-09T19:40:36.822Z,99918.64
2019-03-09T19:43:22.867Z,99922.50
2019-03-09T19:46:09.941Z,99920.78
2019-03-09T19:48:55.977Z,99923.81
2019-03-09T19:51:42.041Z,99925.07
2019-03-09T19:54:28.888Z,99926.80
2019-03-09T19:57:15.324Z,99923.36
2019-03-09T20:00:01.747Z,99926.36
2019-03-09T20:02:48.513Z,99929.78
2019-03-09T20:05:34.869Z,99927.66
2019-03-09T20:08:22.533Z,99927.64
2019-03-09T20:11:09.098Z,99932.36
2019-03-09T20:13:55.083Z,99940.50
2019-03-09T20:16:41.046Z,99942.21
2019-03-09T20:19:27.715Z,99940.50
2019-03-09T20:22:15.870Z,99951.66
2019-03-09T20:25:02.428Z,99958.95
2019-03-09T20:28:03.234Z,99959.78
2019-03-09T20:30:49.350Z,99962.78
2019-03-09T20:33:35.304Z,99970.05
2019-03-09T20:36:21.794Z,99973.06
2019-03-09T20:39:08.162Z,99966.22
2019-03-09T20:41:55.168Z,99963.63
2019-03-09T20:44:42.223Z,99960.67
2019-03-09T20:47:28.121Z,99960.22
2019-03-09T20:50:15.841Z,99960.65
2019-03-09T20:53:02.791Z,99964.50
2019-03-09T20:55:48.974Z,99957.64
2019-03-09T20:58:35.633Z,99959.81
2019-03-09T21:01:26.378Z,99947.80
2019-03-09T21:04:12.566Z,99952.53
2019-03-09T21:06:58.509Z,99953.80
2019-03-09T21:09:48.013Z,99961.09
2019-03-09T21:12:33.769Z,99967.08
2019-03-09T21:15:19.748Z,99960.64
2019-03-09T21:18:06.373Z,99960.64
2019-03-09T21:20:52.566Z,99971.79
2019-03-09T21:23:38.628Z,99967.05
2019-03-09T21:26:25.402Z,99962.75
2019-03-09T21:29:11.280Z,99965.75
2019-03-09T21:31:57.791Z,99968.80
2019-03-09T21:34:44.791Z,99970.91
2019-03-09T21:37:31.140Z,99965.79
2019-03-09T21:40:18.021Z,99958.92
2019-03-09T21:43:04.830Z,99956.78
2019-03-09T21:45:50.718Z,99965.36
2019-03-09T21:48:36.642Z,99960.61
2019-03-09T21:51:23.149Z,99962.36
2019-03-09T21:54:09.750Z,99961.92
2019-03-09T21:57:30.315Z,99965.79
2019-03-09T22:00:16.590Z,99973.08
2019-03-09T22:03:02.850Z,99977.36
2019-03-09T22:05:49.423Z,99973.94
2019-03-09T22:08:35.979Z,99971.36
2019-03-09T22:11:21.942Z,99966.64
2019-03-09T22:14:08.411Z,99971.80
2019-03-09T22:16:57.729Z,99965.36
2019-03-09T22:19:44.108Z,99964.47
2019-03-09T22:22:30.626Z,99961.47
2019-03-09T22:25:17.392Z,99967.90
2019-03-09T22:28:03.622Z,99979.05
2019-03-09T22:30:50.034Z,99975.66
2019-03-09T22:33:36.216Z,99980.34
2019-03-09T22:36:23.027Z,99980.77
2019-03-09T22:39:09.463Z,99978.59
2019-03-09T22:41:56.609Z,99972.20
2019-03-09T22:44:42.567Z,99979.91
2019-03-09T22:47:28.938Z,99988.89
2019-03-09T22:50:15.299Z,99983.30
2019-03-09T22:53:01.594Z,99983.73
2019-03-09T22:55:47.586Z,99981.16
2019-03-09T22:58:33.563Z,99975.53
2019-03-09T23:01:20.391Z,99966.18
2019-03-09T23:04:07.197Z,99964.86
2019-03-09T23:07:12.234Z,99963.61
2019-03-09T23:10:00.835Z,99958.84
2019-03-09T23:12:47.350Z,99949.02
2019-03-09T23:15:33.944Z,99952.41
2019-03-09T23:18:34.570Z,99951.10
2019-03-09T23:21:37.873Z,99954.13
2019-03-09T23:24:24.512Z,99963.13
2019-03-09T23:27:20.935Z,99969.13
2019-03-09T23:30:10.861Z,99963.51
2019-03-09T23:32:57.267Z,99965.64
2019-03-09T23:35:44.051Z,99949.74
2019-03-09T23:38:30.259Z,99956.63
2019-03-09T23:41:16.542Z,99948.84
2019-03-09T23:44:04.461Z,99941.59
2019-03-09T23:46:50.965Z,99947.63
2019-03-09T23:49:37.351Z,99951.83
2019-03-09T23:52:24.511Z,99946.25
2019-03-09T23:55:21.426Z,99942.81
2019-03-09T23:57:59.503Z,99939.45
